createdAt,value
2017-09-25T00:00:14.506Z,935.97
2017-09-25T00:00:42.536Z,935.93
2017-09-25T00:01:10.474Z,935.98
2017-09-25T00:01:38.524Z,935.95
2017-09-25T00:02:06.424Z,935.96
2017-09-25T00:02:34.469Z,935.95
2017-09-25T00:03:02.635Z,935.95
2017-09-25T00:03:30.776Z,935.96
2017-09-25T00:03:58.948Z,935.98
2017-09-25T00:04:27.067Z,935.96
2017-09-25T00:04:55.037Z,935.9
2017-09-25T00:05:23.179Z,935.95
2017-09-25T00:05:51.230Z,935.96
2017-09-25T00:06:19.373Z,935.97
2017-09-25T00:06:47.404Z,935.91
2017-09-25T00:07:15.467Z,935.96
2017-09-25T00:07:43.626Z,935.96
2017-09-25T00:08:11.445Z,935.95
2017-09-25T00:08:39.487Z,935.96
2017-09-25T00:09:07.522Z,935.99
2017-09-25T00:09:35.639Z,935.96
2017-09-25T00:10:03.556Z,935.97
2017-09-25T00:10:31.726Z,935.94
2017-09-25T00:10:59.870Z,935.97
2017-09-25T00:11:27.919Z,935.97
2017-09-25T00:11:56.060Z,935.98
2017-09-25T00:12:24.091Z,935.97
2017-09-25T00:12:52.235Z,935.96
2017-09-25T00:13:19.967Z,935.96
2017-09-25T00:13:47.922Z,935.97
2017-09-25T00:14:15.968Z,935.98
2017-09-25T00:14:43.925Z,935.95
2017-09-25T00:15:12.215Z,935.96
2017-09-25T00:15:40.354Z,935.99
2017-09-25T00:16:07.989Z,935.96
2017-09-25T00:16:36.124Z,935.99
2017-09-25T00:17:04.164Z,935.98
2017-09-25T00:17:32.089Z,935.95
2017-09-25T00:18:00.233Z,935.97
2017-09-25T00:18:28.385Z,936.02
2017-09-25T00:18:56.208Z,935.95
2017-09-25T00:19:24.141Z,935.97
2017-09-25T00:19:52.257Z,935.96
2017-09-25T00:20:20.509Z,935.99
2017-09-25T00:20:48.543Z,935.99
2017-09-25T00:21:16.664Z,936.01
2017-09-25T00:21:44.584Z,935.99
2017-09-25T00:22:12.503Z,936.02
2017-09-25T00:22:40.642Z,936.01
2017-09-25T00:23:08.585Z,936.04
2017-09-25T00:23:36.761Z,936.04
2017-09-25T00:24:04.931Z,936.02
2017-09-25T00:24:33.052Z,936.01
2017-09-25T00:25:01.015Z,936
2017-09-25T00:25:29.302Z,936.02
2017-09-25T00:25:57.324Z,936.04
2017-09-25T00:26:25.466Z,936.03
2017-09-25T00:26:53.393Z,935.99
2017-09-25T00:27:21.315Z,935.99
2017-09-25T00:27:49.258Z,936.02
2017-09-25T00:28:17.316Z,936.02
2017-09-25T00:28:45.437Z,936.04
2017-09-25T00:29:13.562Z,936.05
2017-09-25T00:29:41.581Z,936.05
2017-09-25T00:30:09.627Z,936.01
2017-09-25T00:30:38.070Z,936.03
2017-09-25T00:31:06.032Z,936.05
2017-09-25T00:31:34.050Z,936.04
2017-09-25T00:32:02.166Z,936.07
2017-09-25T00:32:30.223Z,936.08
2017-09-25T00:32:58.356Z,936.04
2017-09-25T00:33:26.501Z,936.06
2017-09-25T00:33:54.472Z,936.02
2017-09-25T00:34:22.418Z,936.03
2017-09-25T00:34:50.363Z,936.05
2017-09-25T00:35:18.203Z,936.03
2017-09-25T00:35:46.188Z,936.04
2017-09-25T00:36:14.307Z,936.13
2017-09-25T00:36:42.347Z,936.07
2017-09-25T00:37:10.397Z,936.09
2017-09-25T00:37:38.431Z,936.15
2017-09-25T00:38:06.554Z,936.06
2017-09-25T00:38:34.459Z,936.08
2017-09-25T00:39:02.639Z,936.08
2017-09-25T00:39:30.665Z,936.07
2017-09-25T00:39:58.773Z,936.13
2017-09-25T00:40:26.849Z,936.1
2017-09-25T00:40:54.794Z,936.12
2017-09-25T00:41:22.824Z,936.12
2017-09-25T00:41:50.956Z,936.12
2017-09-25T00:42:19.086Z,936.14
2017-09-25T00:42:47.237Z,936.16
2017-09-25T00:43:15.191Z,936.18
2017-09-25T00:43:43.205Z,936.16
2017-09-25T00:44:11.041Z,936.18
2017-09-25T00:44:38.960Z,936.18
2017-09-25T00:45:07.009Z,936.21
2017-09-25T00:45:35.263Z,936.16
2017-09-25T00:46:03.315Z,936.17
2017-09-25T00:46:31.383Z,936.19
2017-09-25T00:46:59.419Z,936.14
2017-09-25T00:47:27.557Z,936.13
2017-09-25T00:47:55.707Z,936.14
2017-09-25T00:48:23.544Z,936.18
2017-09-25T00:48:51.665Z,936.16
2017-09-25T00:49:19.812Z,936.16
2017-09-25T00:49:47.829Z,936.12
2017-09-25T00:50:15.981Z,936.11
2017-09-25T00:50:44.304Z,936.14
2017-09-25T00:51:12.336Z,936.11
2017-09-25T00:51:40.405Z,936.11
2017-09-25T00:52:08.570Z,936.15
2017-09-25T00:52:36.479Z,936.1
2017-09-25T00:53:04.429Z,936.14
2017-09-25T00:53:32.475Z,936.12
2017-09-25T00:54:00.517Z,936.09
2017-09-25T00:54:28.558Z,936.09
2017-09-25T00:54:56.559Z,936.11
2017-09-25T00:55:24.356Z,936.11
2017-09-25T00:55:52.541Z,936.11
2017-09-25T00:56:20.699Z,936.1
2017-09-25T00:56:48.722Z,936.12
2017-09-25T00:57:16.769Z,936.1
2017-09-25T00:57:44.710Z,936.09
2017-09-25T00:58:12.661Z,936.05
2017-09-25T00:58:40.693Z,936.14
2017-09-25T00:59:08.838Z,936.1
2017-09-25T00:59:36.767Z,936.14
2017-09-25T01:00:04.809Z,936.18
2017-09-25T01:00:32.927Z,936.14
2017-09-25T01:01:01.152Z,936.15
2017-09-25T01:01:28.969Z,936.13
2017-09-25T01:01:57.117Z,936.22
2017-09-25T01:02:25.154Z,936.16
2017-09-25T01:02:53.079Z,936.18
2017-09-25T01:03:20.815Z,936.18
2017-09-25T01:03:48.879Z,936.14
2017-09-25T01:04:16.926Z,936.16
2017-09-25T01:04:45.055Z,936.15
2017-09-25T01:05:13.185Z,936.17
2017-09-25T01:05:41.215Z,936.16
2017-09-25T01:06:09.160Z,936.16
2017-09-25T01:06:37.264Z,936.16
2017-09-25T01:07:05.419Z,936.13
2017-09-25T01:07:33.452Z,936.15
2017-09-25T01:08:01.612Z,936.12
2017-09-25T01:08:29.631Z,936.15
2017-09-25T01:08:57.760Z,936.17
2017-09-25T01:09:25.675Z,936.16
2017-09-25T01:09:53.487Z,936.15
2017-09-25T01:10:21.439Z,936.16
2017-09-25T01:10:49.586Z,936.17
2017-09-25T01:11:17.717Z,936.12
2017-09-25T01:11:45.745Z,936.11
2017-09-25T01:12:13.860Z,936.1
2017-09-25T01:12:41.905Z,936.08
2017-09-25T01:13:10.035Z,936.08
2017-09-25T01:13:37.961Z,936.1
2017-09-25T01:14:05.997Z,936.14
2017-09-25T01:14:34.031Z,936.09
2017-09-25T01:15:02.156Z,936.16
2017-09-25T01:15:30.315Z,936.09
2017-09-25T01:15:58.580Z,936.12
2017-09-25T01:16:26.630Z,936.13
2017-09-25T01:16:54.662Z,936.12
2017-09-25T01:17:22.709Z,936.13
2017-09-25T01:17:50.554Z,936.09
2017-09-25T01:18:18.687Z,936.12
2017-09-25T01:18:46.824Z,936.15
2017-09-25T01:19:14.874Z,936.15
2017-09-25T01:19:42.729Z,936.13
2017-09-25T01:20:10.765Z,936.07
2017-09-25T01:20:38.671Z,936.09
2017-09-25T01:21:06.709Z,936.09
2017-09-25T01:21:34.740Z,936.07
2017-09-25T01:22:02.761Z,936.13
2017-09-25T01:22:30.901Z,936.11
2017-09-25T01:22:59.018Z,936.1
2017-09-25T01:23:26.863Z,936.13
2017-09-25T01:23:54.886Z,936.08
2017-09-25T01:24:22.808Z,936.12
2017-09-25T01:24:50.846Z,936.09
2017-09-25T01:25:18.953Z,936.11
2017-09-25T01:25:47.090Z,936.1
2017-09-25T01:26:15.324Z,936.13
2017-09-25T01:26:43.289Z,936.07
2017-09-25T01:27:11.115Z,936.15
2017-09-25T01:27:38.961Z,936.07
2017-09-25T01:28:07.108Z,936.13
2017-09-25T01:28:35.231Z,936.09
2017-09-25T01:29:03.259Z,936.1
2017-09-25T01:29:31.377Z,936.09
2017-09-25T01:29:59.527Z,936.08
2017-09-25T01:30:27.566Z,936.11
2017-09-25T01:30:55.609Z,936.11
2017-09-25T01:31:23.441Z,936.09
2017-09-25T01:31:51.484Z,936.1
2017-09-25T01:32:19.334Z,936.14
2017-09-25T01:32:47.285Z,936.11
2017-09-25T01:33:15.448Z,936.14
2017-09-25T01:33:43.558Z,936.09
2017-09-25T01:34:11.587Z,936.09
2017-09-25T01:34:39.722Z,936.13
2017-09-25T01:35:07.854Z,936.14
2017-09-25T01:35:35.794Z,936.15
2017-09-25T01:36:04.006Z,936.17
2017-09-25T01:36:31.930Z,936.19
2017-09-25T01:36:59.949Z,936.17
2017-09-25T01:37:28.006Z,936.17
2017-09-25T01:37:56.113Z,936.14
2017-09-25T01:38:24.247Z,936.17
2017-09-25T01:38:51.960Z,936.2
2017-09-25T01:39:19.980Z,936.2
2017-09-25T01:39:48.019Z,936.21
2017-09-25T01:40:16.080Z,936.15
2017-09-25T01:40:44.211Z,936.2
2017-09-25T01:41:12.343Z,936.15
2017-09-25T01:41:40.378Z,936.2
2017-09-25T01:42:08.315Z,936.15
2017-09-25T01:42:36.445Z,936.18
2017-09-25T01:43:04.486Z,936.18
2017-09-25T01:43:32.500Z,936.17
2017-09-25T01:44:00.557Z,936.2
2017-09-25T01:44:28.477Z,936.17
2017-09-25T01:44:56.529Z,936.21
2017-09-25T01:45:24.646Z,936.18
2017-09-25T01:45:52.647Z,936.18
2017-09-25T01:46:20.677Z,936.18
2017-09-25T01:46:48.616Z,936.18
2017-09-25T01:47:16.745Z,936.17
2017-09-25T01:47:44.932Z,936.15
2017-09-25T01:48:12.964Z,936.18
2017-09-25T01:48:40.975Z,936.18
2017-09-25T01:49:09.004Z,936.17
2017-09-25T01:49:37.136Z,936.17
2017-09-25T01:50:05.081Z,936.15
2017-09-25T01:50:33.013Z,936.19
2017-09-25T01:51:01.053Z,936.18
2017-09-25T01:51:29.184Z,936.18
2017-09-25T01:51:57.218Z,936.17
2017-09-25T01:52:25.161Z,936.2
2017-09-25T01:52:53.175Z,936.17
2017-09-25T01:53:21.186Z,936.16
2017-09-25T01:53:49.307Z,936.18
2017-09-25T01:54:17.270Z,936.2
2017-09-25T01:54:45.305Z,936.21
2017-09-25T01:55:13.462Z,936.16
2017-09-25T01:55:41.503Z,936.18
2017-09-25T01:56:09.475Z,936.21
2017-09-25T01:56:37.603Z,936.16
2017-09-25T01:57:05.521Z,936.18
2017-09-25T01:57:33.660Z,936.17
2017-09-25T01:58:01.579Z,936.15
2017-09-25T01:58:29.644Z,936.17
2017-09-25T01:58:57.699Z,936.2
2017-09-25T01:59:25.752Z,936.17
2017-09-25T01:59:53.785Z,936.18
2017-09-25T02:00:21.903Z,936.12
2017-09-25T02:00:50.030Z,936.18
2017-09-25T02:01:18.278Z,936.15
2017-09-25T02:01:46.206Z,936.16
2017-09-25T02:02:14.268Z,936.15
2017-09-25T02:02:42.213Z,936.16
2017-09-25T02:03:10.254Z,936.13
2017-09-25T02:03:38.292Z,936.08
2017-09-25T02:04:06.423Z,936.13
2017-09-25T02:04:34.556Z,936.12
2017-09-25T02:05:02.601Z,936.15
2017-09-25T02:05:30.442Z,936.13
2017-09-25T02:05:58.459Z,936.1
2017-09-25T02:06:26.718Z,936.11
2017-09-25T02:06:54.642Z,936.14
2017-09-25T02:07:22.681Z,936.1
2017-09-25T02:07:50.704Z,936.09
2017-09-25T02:08:18.836Z,936.13
2017-09-25T02:08:46.871Z,936.14
2017-09-25T02:09:15.013Z,936.12
2017-09-25T02:09:43.170Z,936.09
2017-09-25T02:10:11.122Z,936.07
2017-09-25T02:10:39.260Z,936.08
2017-09-25T02:11:07.304Z,936.07
2017-09-25T02:11:35.580Z,936.05
2017-09-25T02:12:03.717Z,936.04
2017-09-25T02:12:31.741Z,936.08
2017-09-25T02:12:59.880Z,935.98
2017-09-25T02:13:27.893Z,936.07
2017-09-25T02:13:55.809Z,936.05
2017-09-25T02:14:23.641Z,936.03
2017-09-25T02:14:51.795Z,935.99
2017-09-25T02:15:19.939Z,935.99
2017-09-25T02:15:47.870Z,936.06
2017-09-25T02:16:15.851Z,935.97
2017-09-25T02:16:43.992Z,936.03
2017-09-25T02:17:12.123Z,935.96
2017-09-25T02:17:40.098Z,936.01
2017-09-25T02:18:08.015Z,936
2017-09-25T02:18:36.193Z,936.04
2017-09-25T02:19:04.111Z,936.03
2017-09-25T02:19:32.121Z,936.06
2017-09-25T02:20:00.277Z,936.02
2017-09-25T02:20:28.242Z,936.04
2017-09-25T02:20:56.180Z,936.02
2017-09-25T02:21:24.212Z,936.08
2017-09-25T02:21:52.290Z,936.04
2017-09-25T02:22:20.312Z,936.01
2017-09-25T02:22:48.285Z,935.98
2017-09-25T02:23:16.316Z,936.03
2017-09-25T02:23:44.261Z,936.02
2017-09-25T02:24:12.182Z,936.03
2017-09-25T02:24:40.099Z,935.98
2017-09-25T02:25:08.233Z,936.02
2017-09-25T02:25:36.260Z,936.02
2017-09-25T02:26:04.194Z,935.99
2017-09-25T02:26:32.451Z,936.03
2017-09-25T02:27:00.504Z,936.02
2017-09-25T02:27:28.531Z,936.01
2017-09-25T02:27:56.453Z,936.08
2017-09-25T02:28:24.581Z,936.07
2017-09-25T02:28:52.518Z,936.06
2017-09-25T02:29:20.643Z,936.02
2017-09-25T02:29:48.793Z,936.1
2017-09-25T02:30:16.943Z,936.04
2017-09-25T02:30:45.067Z,936.06
2017-09-25T02:31:13.004Z,936.06
2017-09-25T02:31:41.218Z,936.08
2017-09-25T02:32:09.152Z,936.04
2017-09-25T02:32:37.223Z,936.07
2017-09-25T02:33:05.420Z,936.06
2017-09-25T02:33:33.560Z,936.05
2017-09-25T02:34:01.568Z,936
2017-09-25T02:34:29.717Z,936.05
2017-09-25T02:34:57.774Z,936.04
2017-09-25T02:35:25.806Z,936.05
2017-09-25T02:35:53.821Z,936.03
2017-09-25T02:36:21.955Z,936.05
2017-09-25T02:36:50.386Z,936.03
2017-09-25T02:37:18.544Z,935.98
2017-09-25T02:37:46.467Z,936.04
2017-09-25T02:38:14.497Z,936.03
2017-09-25T02:38:42.526Z,936.04
2017-09-25T02:39:10.442Z,936.02
2017-09-25T02:39:38.467Z,935.94
2017-09-25T02:40:06.601Z,936.05
2017-09-25T02:40:34.524Z,936.01
2017-09-25T02:41:02.526Z,936.01
2017-09-25T02:41:30.549Z,936.03
2017-09-25T02:41:58.822Z,935.95
2017-09-25T02:42:26.639Z,935.99
2017-09-25T02:42:54.575Z,935.96
2017-09-25T02:43:22.609Z,935.94
2017-09-25T02:43:50.751Z,935.96
2017-09-25T02:44:18.898Z,935.94
2017-09-25T02:44:46.946Z,935.94
2017-09-25T02:45:14.987Z,935.95
2017-09-25T02:45:43.145Z,935.98
2017-09-25T02:46:11.256Z,935.91
2017-09-25T02:46:39.542Z,935.9
2017-09-25T02:47:07.687Z,935.95
2017-09-25T02:47:35.745Z,935.93
2017-09-25T02:48:03.692Z,935.93
2017-09-25T02:48:31.670Z,935.93
2017-09-25T02:48:59.736Z,935.94
2017-09-25T02:49:27.877Z,935.94
2017-09-25T02:49:55.925Z,935.9
2017-09-25T02:50:23.958Z,935.98
2017-09-25T02:50:52.090Z,935.88
2017-09-25T02:51:20.275Z,935.93
2017-09-25T02:51:48.370Z,935.93
2017-09-25T02:52:16.522Z,935.96
2017-09-25T02:52:44.631Z,935.9
2017-09-25T02:53:12.685Z,935.98
2017-09-25T02:53:40.613Z,935.96
2017-09-25T02:54:08.748Z,935.97
2017-09-25T02:54:36.875Z,935.94
2017-09-25T02:55:05.008Z,935.89
2017-09-25T02:55:33.022Z,935.96
2017-09-25T02:56:01.142Z,935.95
2017-09-25T02:56:29.160Z,935.96
2017-09-25T02:56:57.304Z,935.95
2017-09-25T02:57:25.325Z,935.91
2017-09-25T02:57:53.471Z,935.89
2017-09-25T02:58:21.287Z,935.9
2017-09-25T02:58:49.417Z,935.89
2017-09-25T02:59:17.360Z,935.85
2017-09-25T02:59:45.513Z,935.83
2017-09-25T03:00:13.559Z,935.82
2017-09-25T03:00:41.407Z,935.82
2017-09-25T03:01:09.460Z,935.84
2017-09-25T03:01:37.399Z,935.83
2017-09-25T03:02:05.660Z,935.88
2017-09-25T03:02:33.708Z,935.84
2017-09-25T03:03:01.754Z,935.82
2017-09-25T03:03:29.774Z,935.79
2017-09-25T03:03:57.825Z,935.79
2017-09-25T03:04:25.866Z,935.79
2017-09-25T03:04:53.806Z,935.8
2017-09-25T03:05:21.641Z,935.78
2017-09-25T03:05:49.463Z,935.75
2017-09-25T03:06:17.604Z,935.75
2017-09-25T03:06:45.629Z,935.77
2017-09-25T03:07:13.863Z,935.72
2017-09-25T03:07:41.884Z,935.72
2017-09-25T03:08:10.005Z,935.76
2017-09-25T03:08:38.124Z,935.75
2017-09-25T03:09:06.248Z,935.73
2017-09-25T03:09:34.388Z,935.75
2017-09-25T03:10:02.487Z,935.74
2017-09-25T03:10:30.419Z,935.74
2017-09-25T03:10:58.564Z,935.69
2017-09-25T03:11:26.464Z,935.75
2017-09-25T03:11:54.564Z,935.72
2017-09-25T03:12:22.407Z,935.72
2017-09-25T03:12:50.450Z,935.74
2017-09-25T03:13:18.526Z,935.73
2017-09-25T03:13:46.572Z,935.73
2017-09-25T03:14:14.494Z,935.69
2017-09-25T03:14:42.557Z,935.7
2017-09-25T03:15:10.574Z,935.67
2017-09-25T03:15:38.707Z,935.69
2017-09-25T03:16:06.738Z,935.68
2017-09-25T03:16:34.768Z,935.68
2017-09-25T03:17:02.915Z,935.63
2017-09-25T03:17:30.852Z,935.66
2017-09-25T03:17:58.673Z,935.65
2017-09-25T03:18:26.788Z,935.61
2017-09-25T03:18:54.914Z,935.67
2017-09-25T03:19:23.057Z,935.62
2017-09-25T03:19:51.085Z,935.73
2017-09-25T03:20:19.142Z,935.64
2017-09-25T03:20:47.186Z,935.62
2017-09-25T03:21:15.238Z,935.61
2017-09-25T03:21:43.387Z,935.63
2017-09-25T03:22:11.643Z,935.56
2017-09-25T03:22:39.561Z,935.59
2017-09-25T03:23:07.386Z,935.58
2017-09-25T03:23:35.318Z,935.57
2017-09-25T03:24:03.249Z,935.56
2017-09-25T03:24:31.084Z,935.64
2017-09-25T03:24:59.218Z,935.59
2017-09-25T03:25:27.155Z,935.55
2017-09-25T03:25:55.089Z,935.56
2017-09-25T03:26:23.020Z,935.58
2017-09-25T03:26:51.041Z,935.58
2017-09-25T03:27:19.346Z,935.54
2017-09-25T03:27:47.306Z,935.58
2017-09-25T03:28:15.364Z,935.56
2017-09-25T03:28:43.379Z,935.57
2017-09-25T03:29:11.410Z,935.57
2017-09-25T03:29:39.438Z,935.63
2017-09-25T03:30:07.465Z,935.53
2017-09-25T03:30:35.627Z,935.56
2017-09-25T03:31:03.579Z,935.58
2017-09-25T03:31:31.408Z,935.57
2017-09-25T03:31:59.554Z,935.58
2017-09-25T03:32:27.916Z,935.6
2017-09-25T03:32:55.863Z,935.6
2017-09-25T03:33:23.807Z,935.58
2017-09-25T03:33:51.712Z,935.55
2017-09-25T03:34:19.762Z,935.58
2017-09-25T03:34:47.676Z,935.6
2017-09-25T03:35:15.725Z,935.59
2017-09-25T03:35:43.645Z,935.59
2017-09-25T03:36:11.778Z,935.55
2017-09-25T03:36:39.715Z,935.62
2017-09-25T03:37:07.915Z,935.61
2017-09-25T03:37:35.838Z,935.64
2017-09-25T03:38:03.778Z,935.64
2017-09-25T03:38:31.925Z,935.62
2017-09-25T03:38:59.768Z,935.58
2017-09-25T03:39:27.727Z,935.59
2017-09-25T03:39:55.633Z,935.59
2017-09-25T03:40:23.580Z,935.56
2017-09-25T03:40:51.728Z,935.56
2017-09-25T03:41:19.885Z,935.6
2017-09-25T03:41:47.929Z,935.56
2017-09-25T03:42:16.205Z,935.53
2017-09-25T03:42:44.138Z,935.54
2017-09-25T03:43:12.055Z,935.54
2017-09-25T03:43:40.191Z,935.56
2017-09-25T03:44:08.217Z,935.55
2017-09-25T03:44:36.247Z,935.55
2017-09-25T03:45:04.174Z,935.52
2017-09-25T03:45:32.209Z,935.48
2017-09-25T03:46:00.220Z,935.56
2017-09-25T03:46:28.251Z,935.56
2017-09-25T03:46:56.203Z,935.56
2017-09-25T03:47:24.355Z,935.53
2017-09-25T03:47:52.419Z,935.55
2017-09-25T03:48:20.321Z,935.53
2017-09-25T03:48:48.467Z,935.58
2017-09-25T03:49:16.511Z,935.57
2017-09-25T03:49:44.540Z,935.57
2017-09-25T03:50:12.370Z,935.56
2017-09-25T03:50:40.300Z,935.58
2017-09-25T03:51:08.139Z,935.56
2017-09-25T03:51:36.274Z,935.54
2017-09-25T03:52:04.321Z,935.54
2017-09-25T03:52:32.551Z,935.56
2017-09-25T03:53:00.672Z,935.56
2017-09-25T03:53:28.719Z,935.52
2017-09-25T03:53:56.674Z,935.6
2017-09-25T03:54:24.598Z,935.57
2017-09-25T03:54:52.720Z,935.56
2017-09-25T03:55:20.760Z,935.57
2017-09-25T03:55:48.706Z,935.55
2017-09-25T03:56:16.834Z,935.53
2017-09-25T03:56:44.875Z,935.53
2017-09-25T03:57:12.927Z,935.59
2017-09-25T03:57:41.049Z,935.55
2017-09-25T03:58:09.198Z,935.53
2017-09-25T03:58:37.241Z,935.51
2017-09-25T03:59:05.267Z,935.54
2017-09-25T03:59:33.286Z,935.5
2017-09-25T04:00:01.316Z,935.54
2017-09-25T04:00:29.265Z,935.55
2017-09-25T04:00:57.430Z,935.53
2017-09-25T04:01:25.568Z,935.52
2017-09-25T04:01:53.405Z,935.57
2017-09-25T04:02:21.628Z,935.52
2017-09-25T04:02:49.756Z,935.51
2017-09-25T04:03:17.773Z,935.55
2017-09-25T04:03:45.954Z,935.52
2017-09-25T04:04:14.105Z,935.5
2017-09-25T04:04:42.134Z,935.5
2017-09-25T04:05:09.850Z,935.51
2017-09-25T04:05:37.861Z,935.47
2017-09-25T04:06:05.920Z,935.5
2017-09-25T04:06:33.862Z,935.53
2017-09-25T04:07:01.762Z,935.53
2017-09-25T04:07:29.890Z,935.53
2017-09-25T04:07:57.836Z,935.53
2017-09-25T04:08:25.856Z,935.52
2017-09-25T04:08:53.988Z,935.51
2017-09-25T04:09:21.904Z,935.49
2017-09-25T04:09:49.948Z,935.49
2017-09-25T04:10:18.062Z,935.44
2017-09-25T04:10:46.095Z,935.52
2017-09-25T04:11:14.001Z,935.51
2017-09-25T04:11:42.042Z,935.49
2017-09-25T04:12:10.061Z,935.53
2017-09-25T04:12:37.995Z,935.52
2017-09-25T04:13:06.113Z,935.49
2017-09-25T04:13:34.036Z,935.51
2017-09-25T04:14:02.082Z,935.5
2017-09-25T04:14:29.802Z,935.51
2017-09-25T04:14:57.533Z,935.53
2017-09-25T04:15:25.496Z,935.55
2017-09-25T04:15:53.544Z,935.55
2017-09-25T04:16:21.577Z,935.56
2017-09-25T04:16:49.770Z,935.52
2017-09-25T04:17:17.883Z,935.52
2017-09-25T04:17:46.085Z,935.53
2017-09-25T04:18:14.124Z,935.49
2017-09-25T04:18:42.049Z,935.5
2017-09-25T04:19:10.012Z,935.5
2017-09-25T04:19:38.038Z,935.52
2017-09-25T04:20:06.153Z,935.53
2017-09-25T04:20:34.282Z,935.47
2017-09-25T04:21:02.312Z,935.47
2017-09-25T04:21:30.336Z,935.45
2017-09-25T04:21:58.181Z,935.5
2017-09-25T04:22:26.114Z,935.5
2017-09-25T04:22:54.144Z,935.5
2017-09-25T04:23:22.086Z,935.49
2017-09-25T04:23:50.144Z,935.53
2017-09-25T04:24:18.273Z,935.54
2017-09-25T04:24:46.290Z,935.5
2017-09-25T04:25:14.216Z,935.51
2017-09-25T04:25:42.369Z,935.5
2017-09-25T04:26:10.322Z,935.53
2017-09-25T04:26:38.474Z,935.45
2017-09-25T04:27:06.515Z,935.48
2017-09-25T04:27:34.759Z,935.48
2017-09-25T04:28:02.799Z,935.48
2017-09-25T04:28:30.838Z,935.48
2017-09-25T04:28:58.670Z,935.46
2017-09-25T04:29:26.583Z,935.44
2017-09-25T04:29:54.626Z,935.42
2017-09-25T04:30:22.784Z,935.44
2017-09-25T04:30:50.832Z,935.5
2017-09-25T04:31:18.720Z,935.42
2017-09-25T04:31:46.626Z,935.41
2017-09-25T04:32:14.644Z,935.42
2017-09-25T04:32:42.885Z,935.41
2017-09-25T04:33:11.008Z,935.45
2017-09-25T04:33:39.074Z,935.5
2017-09-25T04:34:07.007Z,935.42
2017-09-25T04:34:35.113Z,935.42
2017-09-25T04:35:03.257Z,935.41
2017-09-25T04:35:31.318Z,935.42
2017-09-25T04:35:59.377Z,935.46
2017-09-25T04:36:27.401Z,935.46
2017-09-25T04:36:55.556Z,935.43
2017-09-25T04:37:23.691Z,935.41
2017-09-25T04:37:51.709Z,935.46
2017-09-25T04:38:19.866Z,935.39
2017-09-25T04:38:47.785Z,935.41
2017-09-25T04:39:15.915Z,935.42
2017-09-25T04:39:44.054Z,935.42
2017-09-25T04:40:11.984Z,935.4
2017-09-25T04:40:40.143Z,935.38
2017-09-25T04:41:08.187Z,935.4
2017-09-25T04:41:36.021Z,935.38
2017-09-25T04:42:03.965Z,935.4
2017-09-25T04:42:32.004Z,935.36
2017-09-25T04:43:00.371Z,935.37
2017-09-25T04:43:28.314Z,935.38
2017-09-25T04:43:56.498Z,935.4
2017-09-25T04:44:24.523Z,935.38
2017-09-25T04:44:52.708Z,935.39
2017-09-25T04:45:20.674Z,935.39
2017-09-25T04:45:48.639Z,935.37
2017-09-25T04:46:16.611Z,935.36
2017-09-25T04:46:44.549Z,935.37
2017-09-25T04:47:12.473Z,935.38
2017-09-25T04:47:40.594Z,935.38
2017-09-25T04:48:08.650Z,935.4
2017-09-25T04:48:36.774Z,935.39
2017-09-25T04:49:04.849Z,935.37
2017-09-25T04:49:32.915Z,935.37
2017-09-25T04:50:00.869Z,935.37
2017-09-25T04:50:28.821Z,935.4
2017-09-25T04:50:56.967Z,935.42
2017-09-25T04:51:25.032Z,935.41
2017-09-25T04:51:52.942Z,935.34
2017-09-25T04:52:21.103Z,935.42
2017-09-25T04:52:49.244Z,935.39
2017-09-25T04:53:17.179Z,935.35
2017-09-25T04:53:45.313Z,935.44
2017-09-25T04:54:13.360Z,935.35
2017-09-25T04:54:41.465Z,935.38
2017-09-25T04:55:09.494Z,935.36
2017-09-25T04:55:37.616Z,935.38
2017-09-25T04:56:05.563Z,935.4
2017-09-25T04:56:33.414Z,935.39
2017-09-25T04:57:01.455Z,935.36
2017-09-25T04:57:29.396Z,935.38
2017-09-25T04:57:57.619Z,935.39
2017-09-25T04:58:25.775Z,935.41
2017-09-25T04:58:53.804Z,935.4
2017-09-25T04:59:21.971Z,935.4
2017-09-25T04:59:49.782Z,935.39
2017-09-25T05:00:17.831Z,935.43
2017-09-25T05:00:45.872Z,935.44
2017-09-25T05:01:13.720Z,935.41
2017-09-25T05:01:41.742Z,935.4
2017-09-25T05:02:09.779Z,935.37
2017-09-25T05:02:37.629Z,935.39
2017-09-25T05:03:05.862Z,935.39
2017-09-25T05:03:33.793Z,935.41
2017-09-25T05:04:01.834Z,935.39
2017-09-25T05:04:29.877Z,935.37
2017-09-25T05:04:57.930Z,935.42
2017-09-25T05:05:26.042Z,935.38
2017-09-25T05:05:54.192Z,935.39
2017-09-25T05:06:22.331Z,935.33
2017-09-25T05:06:50.488Z,935.37
2017-09-25T05:07:18.644Z,935.35
2017-09-25T05:07:46.782Z,935.41
2017-09-25T05:08:15.022Z,935.35
2017-09-25T05:08:43.086Z,935.35
2017-09-25T05:09:10.921Z,935.38
2017-09-25T05:09:38.860Z,935.34
2017-09-25T05:10:06.993Z,935.34
2017-09-25T05:10:34.928Z,935.4
2017-09-25T05:11:02.979Z,935.38
2017-09-25T05:11:30.986Z,935.34
2017-09-25T05:11:58.834Z,935.33
2017-09-25T05:12:26.968Z,935.34
2017-09-25T05:12:55.095Z,935.39
2017-09-25T05:13:23.065Z,935.34
2017-09-25T05:13:51.191Z,935.37
2017-09-25T05:14:19.234Z,935.36
2017-09-25T05:14:47.161Z,935.33
2017-09-25T05:15:15.206Z,935.35
2017-09-25T05:15:43.131Z,935.38
2017-09-25T05:16:11.081Z,935.37
2017-09-25T05:16:39.125Z,935.35
2017-09-25T05:17:07.063Z,935.35
2017-09-25T05:17:35.190Z,935.36
2017-09-25T05:18:03.330Z,935.33
2017-09-25T05:18:31.281Z,935.33
2017-09-25T05:18:59.431Z,935.35
2017-09-25T05:19:27.377Z,935.36
2017-09-25T05:19:55.526Z,935.33
2017-09-25T05:20:23.560Z,935.36
2017-09-25T05:20:51.578Z,935.37
2017-09-25T05:21:19.395Z,935.4
2017-09-25T05:21:47.355Z,935.37
2017-09-25T05:22:15.396Z,935.39
2017-09-25T05:22:43.530Z,935.37
2017-09-25T05:23:11.886Z,935.38
2017-09-25T05:23:40.034Z,935.36
2017-09-25T05:24:08.090Z,935.41
2017-09-25T05:24:36.222Z,935.37
2017-09-25T05:25:04.374Z,935.4
2017-09-25T05:25:32.300Z,935.36
2017-09-25T05:26:00.344Z,935.4
2017-09-25T05:26:28.524Z,935.36
2017-09-25T05:26:56.447Z,935.38
2017-09-25T05:27:24.382Z,935.37
2017-09-25T05:27:52.323Z,935.35
2017-09-25T05:28:20.570Z,935.36
2017-09-25T05:28:48.497Z,935.36
2017-09-25T05:29:16.562Z,935.34
2017-09-25T05:29:44.627Z,935.32
2017-09-25T05:30:12.659Z,935.33
2017-09-25T05:30:40.703Z,935.32
2017-09-25T05:31:08.650Z,935.36
2017-09-25T05:31:36.701Z,935.34
2017-09-25T05:32:04.728Z,935.3
2017-09-25T05:32:32.687Z,935.34
2017-09-25T05:33:00.753Z,935.32
2017-09-25T05:33:29.106Z,935.3
2017-09-25T05:33:57.160Z,935.33
2017-09-25T05:34:25.123Z,935.31
2017-09-25T05:34:52.948Z,935.28
2017-09-25T05:35:21.082Z,935.24
2017-09-25T05:35:49.121Z,935.28
2017-09-25T05:36:17.153Z,935.25
2017-09-25T05:36:45.186Z,935.27
2017-09-25T05:37:13.239Z,935.26
2017-09-25T05:37:41.224Z,935.28
2017-09-25T05:38:09.337Z,935.3
2017-09-25T05:38:37.478Z,935.25
2017-09-25T05:39:05.390Z,935.23
2017-09-25T05:39:33.413Z,935.23
2017-09-25T05:40:01.245Z,935.21
2017-09-25T05:40:29.175Z,935.22
2017-09-25T05:40:57.081Z,935.22
2017-09-25T05:41:25.242Z,935.23
2017-09-25T05:41:53.383Z,935.2
2017-09-25T05:42:21.451Z,935.22
2017-09-25T05:42:49.491Z,935.19
2017-09-25T05:43:17.423Z,935.19
2017-09-25T05:43:45.546Z,935.17
2017-09-25T05:44:13.669Z,935.19
2017-09-25T05:44:41.492Z,935.2
2017-09-25T05:45:09.624Z,935.2
2017-09-25T05:45:37.632Z,935.19
2017-09-25T05:46:05.806Z,935.15
2017-09-25T05:46:33.668Z,935.17
2017-09-25T05:47:01.795Z,935.16
2017-09-25T05:47:29.825Z,935.16
2017-09-25T05:47:57.865Z,935.16
2017-09-25T05:48:26.012Z,935.17
2017-09-25T05:48:53.918Z,935.12
2017-09-25T05:49:22.053Z,935.13
2017-09-25T05:49:50.084Z,935.11
2017-09-25T05:50:18.071Z,935.11
2017-09-25T05:50:46.218Z,935.11